Time;durP1;ratioP1;P1;durP2;ratioP2;P2;SDS_P1;SDS_P2;PMS_P1;PMS_P2;Temp;Humidity;BMP_temperature;BMP_pressure;BME280_temperature;BME280_humidity;BME280_pressure;Samples;Min_cycle;Max_cycle;Signal;HPM_P1;HPM_P2
2023/05/22 08:10:40;;;;;;;36.13;14.32;;;20.60;99.90;;;;;;4852798;23;20417;-75
2023/05/22 08:13:08;;;;;;;30.75;15.52;;;20.90;99.90;;;;;;4964836;28;20271;-78
2023/05/22 08:15:35;;;;;;;31.27;15.38;;;21.50;99.90;;;;;;4975381;28;20604;-76
2023/05/22 08:18:02;;;;;;;30.30;14.10;;;21.60;99.90;;;;;;4995179;28;20654;-76
2023/05/22 08:20:29;;;;;;;33.80;14.48;;;21.60;99.90;;;;;;4977820;28;20298;-78
2023/05/22 08:22:56;;;;;;;30.05;14.38;;;21.80;99.90;;;;;;4978673;28;20211;-80
2023/05/22 08:25:23;;;;;;;28.02;13.40;;;22.10;99.90;;;;;;4980267;28;20291;-79
2023/05/22 08:27:50;;;;;;;35.33;14.25;;;22.30;99.90;;;;;;4986578;28;20245;-77
2023/05/22 08:30:19;;;;;;;25.48;13.27;;;22.70;99.90;;;;;;4981004;28;20558;-75
2023/05/22 08:32:45;;;;;;;29.98;13.80;;;22.70;99.90;;;;;;4980331;28;20249;-74
2023/05/22 08:35:13;;;;;;;34.97;14.32;;;22.30;99.90;;;;;;4977818;28;20703;-74
2023/05/22 08:37:40;;;;;;;26.60;13.55;;;22.10;99.90;;;;;;4978019;28;20689;-73
2023/05/22 08:40:11;;;;;;;24.27;12.68;;;22.00;99.90;;;;;;4976816;28;20250;-73
2023/05/22 08:42:38;;;;;;;31.77;13.88;;;22.00;99.90;;;;;;4974255;28;20214;-76
2023/05/22 08:45:06;;;;;;;24.67;13.50;;;22.00;99.90;;;;;;4974889;28;20213;-75
2023/05/22 08:47:37;;;;;;;27.23;12.60;;;21.70;99.90;;;;;;4974946;28;20311;-75
2023/05/22 08:50:05;;;;;;;29.20;12.60;;;21.50;99.90;;;;;;4974339;28;20732;-76
2023/05/22 08:52:37;;;;;;;24.25;12.07;;;20.90;99.90;;;;;;4974824;28;20270;-76
2023/05/22 08:55:07;;;;;;;33.40;13.18;;;21.00;99.90;;;;;;4974883;28;20253;-75
2023/05/22 08:57:36;;;;;;;25.30;12.80;;;20.50;99.90;;;;;;4974868;28;20350;-75
2023/05/22 09:00:04;;;;;;;31.63;12.65;;;20.10;99.90;;;;;;4976075;28;20242;-78
2023/05/22 09:02:32;;;;;;;27.17;13.10;;;19.90;99.90;;;;;;4974903;28;20666;-80
2023/05/22 09:05:04;;;;;;;32.95;14.18;;;19.70;99.90;;;;;;4989622;28;20546;-76
2023/05/22 09:07:31;;;;;;;31.67;13.85;;;19.60;99.90;;;;;;4975967;28;20760;-75
2023/05/22 09:09:58;;;;;;;28.92;15.20;;;19.40;99.90;;;;;;4974598;28;20670;-76
2023/05/22 09:12:25;;;;;;;31.42;15.45;;;19.20;99.90;;;;;;4975724;28;20277;-75
2023/05/22 09:14:54;;;;;;;31.92;15.43;;;19.00;99.90;;;;;;4975285;28;20681;-78
2023/05/22 09:17:21;;;;;;;25.85;13.30;;;19.00;99.90;;;;;;4974913;28;20259;-75
2023/05/22 09:19:52;;;;;;;31.80;13.55;;;18.80;99.90;;;;;;4971454;28;20730;-76
2023/05/22 09:22:21;;;;;;;32.88;14.10;;;18.90;99.90;;;;;;4973546;28;20208;-74
2023/05/22 09:24:47;;;;;;;35.40;12.80;;;18.90;99.90;;;;;;4987947;28;20206;-76
2023/05/22 09:27:15;;;;;;;27.02;12.65;;;19.10;99.90;;;;;;4983201;28;20327;-76
2023/05/22 09:29:49;;;;;;;30.52;12.98;;;19.10;99.90;;;;;;4974315;28;20266;-73
2023/05/22 09:32:17;;;;;;;32.47;14.00;;;19.20;99.90;;;;;;4971478;28;20234;-72
2023/05/22 09:34:45;;;;;;;27.30;14.70;;;19.10;99.90;;;;;;4976537;28;20293;-77
2023/05/22 09:37:12;;;;;;;27.90;13.17;;;19.00;99.90;;;;;;4978692;28;20207;-75
2023/05/22 09:39:43;;;;;;;32.55;14.70;;;18.80;99.90;;;;;;4979017;28;20242;-74
2023/05/22 09:42:13;;;;;;;29.33;15.52;;;18.80;99.90;;;;;;4978531;28;20215;-74
2023/05/22 09:44:41;;;;;;;30.17;15.68;;;18.70;99.90;;;;;;4978542;28;20210;-75
2023/05/22 09:47:11;;;;;;;32.90;15.55;;;18.80;99.90;;;;;;4973588;28;20218;-75
2023/05/22 09:49:42;;;;;;;30.70;14.52;;;18.90;99.90;;;;;;4978380;28;20294;-76
2023/05/22 09:52:11;;;;;;;31.60;15.50;;;18.90;99.90;;;;;;4978857;28;20728;-78
2023/05/22 09:54:45;;;;;;;33.05;15.10;;;18.90;99.90;;;;;;4977341;28;20262;-76
2023/05/22 09:57:15;;;;;;;30.30;14.05;;;19.00;99.90;;;;;;4974774;28;20285;-75
2023/05/22 09:59:43;;;;;;;26.77;14.13;;;19.20;99.90;;;;;;4978035;28;20207;-75
2023/05/22 10:02:12;;;;;;;28.45;14.13;;;19.40;99.90;;;;;;4977332;28;20204;-76
2023/05/22 10:04:41;;;;;;;28.85;13.65;;;19.70;99.90;;;;;;4978493;28;20538;-82
2023/05/22 10:07:11;;;;;;;29.92;15.00;;;19.80;99.90;;;;;;4977434;28;20262;-75
2023/05/22 10:09:39;;;;;;;33.00;14.63;;;19.80;99.90;;;;;;4977105;28;20258;-77
2023/05/22 10:12:12;;;;;;;30.90;13.63;;;19.80;99.90;;;;;;4975602;28;20286;-76
2023/05/22 10:14:39;;;;;;;30.70;14.02;;;19.60;99.90;;;;;;4977614;28;20211;-75
2023/05/22 10:17:06;;;;;;;26.83;12.35;;;19.60;99.90;;;;;;4976627;28;20211;-76
2023/05/22 10:19:36;;;;;;;25.63;13.00;;;19.80;99.90;;;;;;4976163;28;20207;-73
2023/05/22 10:22:04;;;;;;;33.75;13.52;;;20.10;99.90;;;;;;4976755;28;20724;-73
2023/05/22 10:24:32;;;;;;;26.48;12.73;;;20.40;99.90;;;;;;4976011;28;20618;-73
2023/05/22 10:26:59;;;;;;;23.67;12.77;;;20.20;99.90;;;;;;4975482;28;20266;-75
2023/05/22 10:29:36;;;;;;;25.70;13.43;;;20.40;99.90;;;;;;4975990;28;20736;-73
2023/05/22 10:32:08;;;;;;;31.23;14.27;;;20.60;99.90;;;;;;4976538;28;20661;-74
2023/05/22 10:34:40;;;;;;;28.02;14.10;;;20.60;99.90;;;;;;4975647;28;20206;-73
2023/05/22 10:37:21;;;;;;;30.63;14.40;;;20.30;99.90;;;;;;4976074;28;20266;-73
2023/05/22 10:39:59;;;;;;;30.52;14.85;;;20.30;99.90;;;;;;4978827;28;20677;-73
2023/05/22 10:42:29;;;;;;;30.98;14.75;;;20.60;99.90;;;;;;4977045;28;20207;-75
2023/05/22 10:45:00;;;;;;;27.20;13.82;;;20.90;99.90;;;;;;4975448;28;20250;-72
2023/05/22 10:47:27;;;;;;;32.50;14.60;;;20.90;99.90;;;;;;4975660;28;20729;-77
2023/05/22 10:50:04;;;;;;;34.03;17.02;;;21.00;99.90;;;;;;4976126;28;20326;-79
2023/05/22 10:52:31;;;;;;;33.22;16.88;;;21.20;99.90;;;;;;4976176;28;20308;-81
2023/05/22 10:55:00;;;;;;;38.50;17.50;;;21.40;99.90;;;;;;4975511;28;20222;-81
2023/05/22 10:57:32;;;;;;;37.42;17.60;;;21.40;99.90;;;;;;4988931;28;20313;-78
2023/05/22 11:00:12;;;;;;;41.15;17.42;;;21.60;99.90;;;;;;4994920;28;20207;-76
2023/05/22 11:02:41;;;;;;;38.00;16.75;;;21.70;99.90;;;;;;4994495;28;20221;-78
2023/05/22 11:05:37;;;;;;;37.60;16.95;;;21.60;99.90;;;;;;4995169;28;20680;-77
2023/05/22 11:08:29;;;;;;;36.20;18.20;;;21.70;99.90;;;;;;4995270;28;20226;-80
2023/05/22 11:10:57;;;;;;;38.90;17.88;;;21.80;99.90;;;;;;4996239;28;20273;-81
2023/05/22 11:13:26;;;;;;;36.42;15.55;;;21.50;99.90;;;;;;4995250;28;20775;-79
2023/05/22 11:15:56;;;;;;;35.38;16.70;;;21.60;99.90;;;;;;4995404;28;20241;-79
2023/05/22 11:18:28;;;;;;;34.88;15.57;;;21.80;99.90;;;;;;4995582;28;20779;-80
2023/05/22 11:20:55;;;;;;;31.58;15.75;;;21.70;99.90;;;;;;4995748;28;20261;-80
2023/05/22 11:23:25;;;;;;;34.25;16.00;;;21.70;99.90;;;;;;4995927;28;20289;-79
2023/05/22 11:25:52;;;;;;;35.83;15.52;;;21.70;99.90;;;;;;4995911;28;20245;-80
2023/05/22 11:28:19;;;;;;;32.67;15.55;;;21.80;99.90;;;;;;4995576;28;20292;-78
2023/05/22 11:30:46;;;;;;;31.70;14.35;;;21.40;99.90;;;;;;4995308;28;20736;-79
2023/05/22 11:33:15;;;;;;;30.65;14.90;;;21.30;99.90;;;;;;4995761;28;20716;-80
2023/05/22 11:35:44;;;;;;;34.53;15.18;;;21.20;99.90;;;;;;4995832;28;20294;-79
2023/05/22 11:38:12;;;;;;;39.88;16.70;;;20.90;99.90;;;;;;4995256;28;20233;-79
2023/05/22 11:40:39;;;;;;;35.65;16.27;;;21.10;99.90;;;;;;4995342;28;20230;-81
2023/05/22 11:43:06;;;;;;;38.45;16.45;;;21.20;99.90;;;;;;4995271;28;20265;-79
2023/05/22 11:45:37;;;;;;;31.40;14.70;;;21.40;99.90;;;;;;4995312;28;20202;-82
2023/05/22 11:48:04;;;;;;;36.92;16.02;;;21.60;99.90;;;;;;4995323;28;20222;-78
2023/05/22 11:50:32;;;;;;;37.80;14.77;;;21.60;99.90;;;;;;4994821;28;20237;-80
2023/05/22 11:53:01;;;;;;;33.80;15.60;;;21.40;99.90;;;;;;4995488;28;20234;-78
2023/05/22 11:55:28;;;;;;;32.45;14.95;;;21.30;99.90;;;;;;4994080;28;20238;-79
2023/05/22 11:57:55;;;;;;;26.27;13.80;;;21.10;99.90;;;;;;4977177;28;20708;-76
2023/05/22 12:00:22;;;;;;;28.13;13.13;;;21.10;99.90;;;;;;4970755;28;20207;-80
2023/05/22 12:02:49;;;;;;;31.48;13.98;;;21.30;99.90;;;;;;4975069;28;20282;-76
2023/05/22 12:05:16;;;;;;;24.90;12.38;;;21.40;99.90;;;;;;4973958;28;20729;-79
2023/05/22 12:07:45;;;;;;;26.65;13.50;;;21.60;99.90;;;;;;4979884;28;20710;-77
2023/05/22 12:10:14;;;;;;;34.25;14.98;;;21.60;99.90;;;;;;4973646;28;20273;-76
2023/05/22 12:12:42;;;;;;;32.08;14.48;;;21.70;99.90;;;;;;4973262;28;20301;-80
2023/05/22 12:15:10;;;;;;;30.63;13.63;;;21.60;99.90;;;;;;4973966;28;20238;-83
2023/05/22 12:17:37;;;;;;;31.42;13.57;;;21.30;99.90;;;;;;4976035;28;20285;-82
2023/05/22 12:20:05;;;;;;;29.38;14.48;;;21.30;99.90;;;;;;4984462;28;20211;-76
2023/05/22 12:22:32;;;;;;;27.55;12.68;;;21.00;99.90;;;;;;4973414;28;20557;-78
2023/05/22 12:25:01;;;;;;;29.65;13.35;;;20.90;99.90;;;;;;4973827;28;20211;-78
2023/05/22 12:27:30;;;;;;;23.15;12.45;;;21.00;99.90;;;;;;4975490;28;20230;-76
2023/05/22 12:29:58;;;;;;;28.23;12.18;;;21.10;99.90;;;;;;4977910;28;20525;-75
2023/05/22 12:32:25;;;;;;;28.00;13.02;;;21.20;99.90;;;;;;4977381;28;20302;-76
2023/05/22 12:34:52;;;;;;;29.23;12.73;;;21.30;99.90;;;;;;4973659;28;20239;-76
2023/05/22 12:37:20;;;;;;;25.00;12.40;;;21.50;99.90;;;;;;4973790;28;20231;-76
2023/05/22 12:39:55;;;;;;;22.15;11.73;;;21.50;99.90;;;;;;4974102;28;20346;-74
2023/05/22 12:42:23;;;;;;;19.80;10.93;;;21.60;99.90;;;;;;4972939;28;20226;-80
2023/05/22 12:44:52;;;;;;;22.45;10.90;;;21.50;99.90;;;;;;4973668;28;20203;-76
2023/05/22 12:47:19;;;;;;;24.83;11.27;;;21.60;99.90;;;;;;4973636;28;20768;-80
2023/05/22 12:49:46;;;;;;;23.40;10.93;;;21.70;99.90;;;;;;4974173;28;20298;-87
2023/05/22 12:52:13;;;;;;;19.85;10.35;;;21.80;99.90;;;;;;4974774;28;20266;-74
2023/05/22 12:54:40;;;;;;;18.95;10.50;;;21.90;99.90;;;;;;4975113;28;20737;-74
2023/05/22 12:57:07;;;;;;;23.85;11.32;;;22.20;99.90;;;;;;4972701;28;20415;-78
2023/05/22 12:59:36;;;;;;;22.23;10.95;;;22.30;99.90;;;;;;4973906;28;20203;-86
2023/05/22 13:02:04;;;;;;;22.75;10.77;;;22.20;99.90;;;;;;4973265;28;20343;-75
2023/05/22 13:04:31;;;;;;;23.85;11.20;;;22.50;99.90;;;;;;4973228;28;20207;-86
2023/05/22 13:06:58;;;;;;;22.38;11.18;;;22.60;99.90;;;;;;4972907;28;20610;-76
2023/05/22 13:09:25;;;;;;;19.27;10.50;;;22.70;99.90;;;;;;4973911;28;20235;-74
2023/05/22 13:11:52;;;;;;;19.63;10.82;;;22.70;99.90;;;;;;4973571;28;20222;-74
2023/05/22 13:14:20;;;;;;;23.48;10.38;;;22.70;99.90;;;;;;4974305;28;20514;-78
2023/05/22 13:16:48;;;;;;;20.85;10.43;;;22.80;99.90;;;;;;4978418;28;20696;-76
2023/05/22 13:19:15;;;;;;;21.02;9.63;;;22.80;99.90;;;;;;4990314;28;20288;-78
2023/05/22 13:21:42;;;;;;;18.60;9.80;;;22.80;99.90;;;;;;4973028;28;20205;-75
2023/05/22 13:24:09;;;;;;;20.88;10.15;;;22.60;99.90;;;;;;4972892;28;20297;-78
2023/05/22 13:26:36;;;;;;;21.95;9.85;;;22.70;99.90;;;;;;4972227;28;20245;-78
2023/05/22 13:29:03;;;;;;;23.45;11.00;;;23.00;99.90;;;;;;4972900;28;20274;-77
2023/05/22 13:31:32;;;;;;;17.27;9.77;;;23.20;99.90;;;;;;4973389;28;20211;-74
2023/05/22 13:34:00;;;;;;;19.58;9.65;;;23.20;99.90;;;;;;4974084;28;20237;-76
2023/05/22 13:36:27;;;;;;;20.50;9.75;;;23.20;99.90;;;;;;4973803;28;20211;-72
2023/05/22 13:38:55;;;;;;;18.58;9.95;;;23.10;99.90;;;;;;4974654;28;20310;-73
2023/05/22 13:41:22;;;;;;;18.08;9.82;;;23.10;99.90;;;;;;4972778;28;20737;-72
2023/05/22 13:43:49;;;;;;;17.38;9.73;;;22.80;99.90;;;;;;4973420;28;20671;-76
2023/05/22 13:46:16;;;;;;;18.02;9.52;;;22.80;99.90;;;;;;4973353;28;20265;-74
2023/05/22 13:48:44;;;;;;;23.52;9.90;;;22.80;99.90;;;;;;4971994;28;20219;-73
2023/05/22 13:51:12;;;;;;;18.77;9.75;;;23.00;99.90;;;;;;4972651;28;20272;-70
2023/05/22 13:53:39;;;;;;;19.85;10.07;;;23.20;99.90;;;;;;4973041;28;20313;-71
2023/05/22 13:56:06;;;;;;;18.08;9.18;;;23.20;99.90;;;;;;4989871;28;20326;-73
2023/05/22 13:58:33;;;;;;;19.23;9.20;;;23.20;99.90;;;;;;4953436;28;20306;-72
2023/05/22 14:01:01;;;;;;;14.48;8.80;;;23.20;99.90;;;;;;4968910;28;20657;-77
2023/05/22 14:03:28;;;;;;;18.08;9.63;;;23.20;99.90;;;;;;4972825;28;20551;-77
2023/05/22 14:05:54;;;;;;;19.23;9.60;;;22.90;99.90;;;;;;4972917;28;20207;-76
2023/05/22 14:08:23;;;;;;;17.98;9.60;;;22.60;99.90;;;;;;4975892;23;20262;-76
2023/05/22 14:10:50;;;;;;;16.60;9.13;;;22.50;99.90;;;;;;4953527;28;20271;-77
2023/05/22 14:13:17;;;;;;;17.90;9.63;;;22.60;99.90;;;;;;4954250;28;20272;-78
2023/05/22 14:15:45;;;;;;;19.02;9.00;;;22.70;99.90;;;;;;4953891;28;20317;-79
2023/05/22 14:18:12;;;;;;;16.27;8.57;;;22.80;99.90;;;;;;4943827;28;20267;-81
2023/05/22 14:20:40;;;;;;;16.48;9.40;;;22.80;99.90;;;;;;4951184;28;20215;-77
2023/05/22 14:23:07;;;;;;;18.30;8.95;;;23.00;99.90;;;;;;4957830;28;20266;-77
2023/05/22 14:25:36;;;;;;;19.15;9.18;;;22.70;99.90;;;;;;4953134;28;20291;-77
2023/05/22 14:28:03;;;;;;;18.77;8.40;;;22.50;99.90;;;;;;4956441;28;20271;-77
2023/05/22 14:30:30;;;;;;;17.48;8.45;;;22.50;99.90;;;;;;4956236;28;20211;-75
2023/05/22 14:32:56;;;;;;;16.08;8.77;;;22.50;99.90;;;;;;4955720;28;20232;-75
2023/05/22 14:35:23;;;;;;;17.10;8.63;;;22.20;99.90;;;;;;4956130;28;20254;-76
2023/05/22 14:37:50;;;;;;;19.35;9.02;;;21.90;99.90;;;;;;4956234;28;20314;-77
2023/05/22 14:40:17;;;;;;;16.45;9.23;;;21.90;99.90;;;;;;4955521;28;20675;-79
2023/05/22 14:42:46;;;;;;;18.00;9.05;;;21.80;99.90;;;;;;4950751;28;20240;-77
2023/05/22 14:45:12;;;;;;;19.98;9.63;;;21.70;99.90;;;;;;4939152;28;20293;-75
2023/05/22 14:47:41;;;;;;;14.88;8.50;;;21.60;99.90;;;;;;4936515;29;20300;-77
2023/05/22 14:50:09;;;;;;;17.92;9.55;;;21.60;99.90;;;;;;4944729;28;20670;-75
2023/05/22 14:52:36;;;;;;;18.10;9.38;;;21.80;99.90;;;;;;4955401;28;20239;-76
2023/05/22 14:55:03;;;;;;;19.15;9.57;;;21.80;99.90;;;;;;4955413;28;20243;-76
2023/05/22 14:57:30;;;;;;;21.10;9.80;;;21.90;99.90;;;;;;4955857;29;20336;-77
2023/05/22 14:59:59;;;;;;;19.02;10.07;;;22.00;99.90;;;;;;4955755;28;20208;-75
2023/05/22 15:02:25;;;;;;;22.73;11.27;;;22.00;99.90;;;;;;4955574;28;20309;-76
2023/05/22 15:04:52;;;;;;;22.13;11.18;;;21.80;99.90;;;;;;4956085;28;20734;-76
2023/05/22 15:07:20;;;;;;;24.52;11.68;;;21.90;99.90;;;;;;4955772;28;20295;-77
2023/05/22 15:09:46;;;;;;;27.02;12.18;;;21.80;99.90;;;;;;4954696;28;20685;-77
2023/05/22 15:12:13;;;;;;;28.02;12.20;;;21.80;99.90;;;;;;4944164;28;20252;-75
2023/05/22 15:14:40;;;;;;;22.10;11.50;;;21.80;99.90;;;;;;4948327;29;20271;-75
2023/05/22 15:17:09;;;;;;;23.27;12.27;;;21.80;99.90;;;;;;4954904;29;20252;-76
2023/05/22 15:19:36;;;;;;;21.88;11.07;;;21.70;99.90;;;;;;4955217;28;20218;-77
2023/05/22 15:22:03;;;;;;;22.58;10.48;;;21.60;99.90;;;;;;4955179;28;20216;-75
2023/05/22 15:24:30;;;;;;;18.90;9.60;;;21.50;99.90;;;;;;4952621;28;20722;-74
2023/05/22 15:26:57;;;;;;;21.05;9.55;;;21.40;99.90;;;;;;4943993;29;20299;-76
2023/05/22 15:29:24;;;;;;;17.77;9.13;;;21.50;99.90;;;;;;4944938;28;20212;-77
2023/05/22 15:31:52;;;;;;;18.45;9.00;;;21.60;99.90;;;;;;4953709;28;20214;-77
2023/05/22 15:34:20;;;;;;;14.05;8.18;;;21.50;99.90;;;;;;4954911;28;20730;-76
2023/05/22 15:36:47;;;;;;;18.88;8.82;;;21.50;99.90;;;;;;4955027;28;20698;-75
2023/05/22 15:39:14;;;;;;;17.15;8.50;;;21.70;99.90;;;;;;4953189;28;20777;-75
2023/05/22 15:41:41;;;;;;;19.08;8.77;;;21.90;99.90;;;;;;4955007;28;20295;-83
2023/05/22 15:44:10;;;;;;;17.42;8.05;;;21.80;99.90;;;;;;4955733;28;20216;-78
2023/05/22 15:46:37;;;;;;;19.00;8.65;;;21.90;99.90;;;;;;4954493;28;20235;-75
2023/05/22 15:49:04;;;;;;;17.80;9.27;;;21.80;99.90;;;;;;4954197;28;20235;-80
2023/05/22 15:51:34;;;;;;;15.85;7.72;;;21.80;99.90;;;;;;4935829;29;20529;-76
2023/05/22 15:54:01;;;;;;;19.33;7.65;;;21.80;99.90;;;;;;4941541;28;20733;-79
2023/05/22 15:56:28;;;;;;;14.65;7.45;;;21.70;99.90;;;;;;4955497;29;20214;-77
2023/05/22 15:58:55;;;;;;;19.77;8.68;;;21.70;99.90;;;;;;4955008;29;20247;-78
2023/05/22 16:01:22;;;;;;;19.08;8.82;;;21.40;99.90;;;;;;4954070;28;20282;-79
2023/05/22 16:03:48;;;;;;;18.02;8.68;;;21.20;99.90;;;;;;4954700;28;20263;-77
2023/05/22 16:06:15;;;;;;;16.70;8.07;;;21.30;99.90;;;;;;4955042;28;20216;-79
2023/05/22 16:08:44;;;;;;;19.98;10.82;;;21.20;99.90;;;;;;4934924;29;20244;-77
2023/05/22 20:54:45;;;;;;;23.27;6.67;;;15.80;99.90;;;;;;4956133;23;20699;-74
2023/05/22 20:57:12;;;;;;;21.07;6.00;;;15.70;99.90;;;;;;4955217;28;20211;-74
2023/05/22 20:59:39;;;;;;;21.70;7.60;;;15.70;99.90;;;;;;4955833;28;20319;-73
2023/05/22 21:02:06;;;;;;;18.90;7.03;;;15.60;99.90;;;;;;4951437;28;20258;-73
2023/05/22 21:04:33;;;;;;;14.47;7.07;;;15.60;99.90;;;;;;4955848;28;20758;-72
2023/05/22 21:07:00;;;;;;;21.33;7.93;;;15.60;99.90;;;;;;4956006;28;20208;-73
2023/05/22 21:09:27;;;;;;;21.07;7.57;;;15.60;99.90;;;;;;4974173;28;20207;-73
